airplane image

note

mic

electronics

Fly Music Sound

What-else

 

 

 

 

LSZB

[Source: ADDS]
METAR
LSZB 231250Z 25005KT 220V290 9999 FEW033 BKN050 10/06 Q1024 NOSIG =
TAF
LSZB 231125Z 2312/2321 26007KT 9999 SCT030 BKN045 TEMPO 2312/2321 SHRA =

LSZG

[Source: ADDS]
METAR
LSZG 231250Z 24008KT 9999 -SHRA FEW015 BKN035 10/05 Q1024 NOSIG =
TAF
LSZG 231125Z 2312/2321 23010KT 9999 -DZ BKN040 PROB30 TEMPO 2312/2321 4000 RA BKN012 =

LSZH

[Source: ADDS]
METAR
LSZH 231250Z 21004KT 150V250 8000 -SHRA FEW012 SCT018 BKN030 09/07 Q1024 TEMPO 4500 SHRA BKN012 =
TAF
LSZH 231125Z 2312/2418 25008KT 9999 SCT015 BKN030 TX10/2313Z TN06/2405Z TX14/2414Z TEMPO 2312/2409 SHRA PROB30 2320/2401 BKN014 TEMPO 2414/2418 FEW030 =